Hanover Park, Illinois
Current Conditions -  °F | °C
As of 10:52 PM on Saturday 22 Nov 2014 (Local Time) from KDPA Reporting Station
Overcast Overcast  
Wind Chill: 51°   Ceiling: 2100
Heat Index: 51°   Visibility: 8mi
Dew Point: 46°   Wind: 13mph
Humidity: 83%   Direction: 190°S
Pressure: 29.83"   Gusts: NA
Location:  41.99°N, 88.16°W
Report Text: KDPA 230452Z 19011KT 8SM OVC021 11/08 A2983 RMK AO2 SLP104 T01060078
Loading
Personal Weather Stations






























Interactive Weather Map New forecast layout! Learn more

10-Day Weather Forecast

Advertisements
Track Severe Weather on mobile